createdAt,value
2023-03-15T00:01:11.277Z,100677.38
2023-03-15T00:03:39.729Z,100693.94
2023-03-15T00:06:07.352Z,100693.13
2023-03-15T00:08:34.464Z,100692.28
2023-03-15T00:11:02.229Z,100720.31
2023-03-15T00:13:31.845Z,100735.22
2023-03-15T00:16:02.874Z,100735.38
2023-03-15T00:18:30.610Z,100738.50
2023-03-15T00:20:58.421Z,100733.09
2023-03-15T00:23:25.905Z,100727.84
2023-03-15T00:25:53.842Z,100728.38
2023-03-15T00:28:21.401Z,100729.53
2023-03-15T00:30:49.616Z,100732.16
2023-03-15T00:33:17.104Z,100735.47
2023-03-15T00:35:45.611Z,100731.84
2023-03-15T00:38:14.176Z,100737.09
2023-03-15T00:40:41.421Z,100734.34
2023-03-15T00:43:08.320Z,100739.22
2023-03-15T00:45:35.397Z,100743.03
2023-03-15T00:48:04.207Z,100745.69
2023-03-15T00:50:31.054Z,100747.00
2023-03-15T00:52:57.924Z,100736.19
2023-03-15T00:55:24.939Z,100741.09
2023-03-15T00:57:52.053Z,100750.78
2023-03-15T01:00:24.375Z,100748.63
2023-03-15T01:02:52.156Z,100752.41
2023-03-15T01:05:21.864Z,100763.34
2023-03-15T01:07:49.506Z,100754.81
2023-03-15T01:10:17.458Z,100753.19
2023-03-15T01:12:45.233Z,100755.16
2023-03-15T01:15:14.859Z,100760.56
2023-03-15T01:17:43.008Z,100763.34
2023-03-15T01:20:13.198Z,100779.44
2023-03-15T01:22:41.441Z,100782.06
2023-03-15T01:25:09.598Z,100779.63
2023-03-15T01:27:37.382Z,100786.03
2023-03-15T01:30:06.539Z,100794.88
2023-03-15T01:32:33.920Z,100797.84
2023-03-15T01:35:00.902Z,100801.47
2023-03-15T01:37:27.861Z,100801.16
2023-03-15T01:39:56.060Z,100806.09
2023-03-15T01:42:23.079Z,100802.81
2023-03-15T01:44:56.428Z,100799.53
2023-03-15T01:47:27.069Z,100797.22
2023-03-15T01:50:02.402Z,100802.16
2023-03-15T01:52:35.724Z,100800.19
2023-03-15T01:55:10.068Z,100810.38
2023-03-15T01:57:41.548Z,100820.56
2023-03-15T02:00:13.313Z,100820.56
2023-03-15T02:02:49.048Z,100822.19
2023-03-15T02:05:23.813Z,100827.09
2023-03-15T02:07:54.419Z,100825.13
2023-03-15T02:10:30.595Z,100828.75
2023-03-15T02:12:59.416Z,100839.59
2023-03-15T02:15:26.980Z,100837.13
2023-03-15T02:17:53.994Z,100846.81
2023-03-15T02:20:34.778Z,100849.44
2023-03-15T02:23:06.511Z,100846.47
2023-03-15T02:25:45.735Z,100849.78
2023-03-15T02:28:16.700Z,100859.28
2023-03-15T02:30:45.301Z,100861.91
2023-03-15T02:33:22.355Z,100865.84
2023-03-15T02:35:49.413Z,100869.28
2023-03-15T02:38:16.380Z,100863.53
2023-03-15T02:40:46.421Z,100854.19
2023-03-15T02:43:19.658Z,100859.91
2023-03-15T02:45:47.954Z,100858.28
2023-03-15T02:48:16.459Z,100864.81
2023-03-15T02:50:43.402Z,100869.72
2023-03-15T02:53:12.220Z,100875.34
2023-03-15T02:55:39.546Z,100879.22
2023-03-15T02:58:06.486Z,100875.31
2023-03-15T03:00:35.312Z,100874.94
2023-03-15T03:03:02.190Z,100875.75
2023-03-15T03:05:29.200Z,100881.81
2023-03-15T03:07:56.169Z,100879.81
2023-03-15T03:10:23.309Z,100885.53
2023-03-15T03:12:53.433Z,100901.75
2023-03-15T03:15:21.504Z,100910.22
2023-03-15T03:17:49.766Z,100910.56
2023-03-15T03:20:16.788Z,100926.59
2023-03-15T03:22:44.787Z,100925.28
2023-03-15T03:25:12.836Z,100942.97
2023-03-15T03:27:40.959Z,100935.25
2023-03-15T03:30:11.392Z,100947.88
2023-03-15T03:32:39.557Z,100956.09
2023-03-15T03:35:09.368Z,100955.81
2023-03-15T03:37:36.367Z,100969.28
2023-03-15T03:40:06.873Z,100965.38
2023-03-15T03:42:34.318Z,100974.41
2023-03-15T03:45:01.803Z,100972.66
2023-03-15T03:47:28.705Z,100977.59
2023-03-15T03:49:55.633Z,100978.41
2023-03-15T03:52:23.990Z,100985.47
2023-03-15T03:54:50.961Z,100978.91
2023-03-15T03:57:17.871Z,100983.78
2023-03-15T03:59:44.824Z,100978.84
2023-03-15T04:02:11.862Z,100992.25
2023-03-15T04:04:41.163Z,100995.50
2023-03-15T04:07:08.670Z,100996.78
2023-03-15T04:09:37.675Z,101004.31
2023-03-15T04:12:06.103Z,101006.25
2023-03-15T04:14:33.203Z,101003.78
2023-03-15T04:17:03.660Z,101008.19
2023-03-15T04:19:30.862Z,101019.03
2023-03-15T04:21:57.834Z,101028.81
2023-03-15T04:24:24.801Z,101033.56
2023-03-15T04:26:57.718Z,101041.56
2023-03-15T04:29:24.708Z,101041.88
2023-03-15T04:31:51.666Z,101052.38
2023-03-15T04:34:18.761Z,101053.28
2023-03-15T04:36:45.675Z,101053.47
2023-03-15T04:39:12.614Z,101056.22
2023-03-15T04:41:39.575Z,101060.50
2023-03-15T04:44:07.891Z,101068.34
2023-03-15T04:46:34.865Z,101076.38
2023-03-15T04:49:03.304Z,101076.38
2023-03-15T04:51:30.371Z,101078.19
2023-03-15T04:53:57.291Z,101082.59
2023-03-15T04:56:24.193Z,101080.25
2023-03-15T04:58:51.180Z,101089.41
2023-03-15T05:01:19.563Z,101090.03
2023-03-15T05:03:46.562Z,101096.69
2023-03-15T05:06:13.545Z,101094.63
2023-03-15T05:08:40.496Z,101095.09
2023-03-15T05:11:07.370Z,101101.44
2023-03-15T05:13:34.282Z,101099.16
2023-03-15T05:16:01.202Z,101107.28
2023-03-15T05:18:29.873Z,101109.25
2023-03-15T05:20:57.019Z,101108.56
2023-03-15T05:23:24.635Z,101104.56
2023-03-15T05:25:55.501Z,101124.84
2023-03-15T05:28:24.727Z,101126.13
2023-03-15T05:30:53.092Z,101128.19
2023-03-15T05:33:21.408Z,101130.31
2023-03-15T05:35:49.735Z,101134.19
2023-03-15T05:38:16.845Z,101140.53
2023-03-15T05:40:45.017Z,101144.94
2023-03-15T05:43:12.735Z,101152.94
2023-03-15T05:45:40.974Z,101159.31
2023-03-15T05:48:07.954Z,101170.91
2023-03-15T05:50:36.211Z,101176.41
2023-03-15T05:53:04.883Z,101182.47
2023-03-15T05:55:31.997Z,101177.09
2023-03-15T05:57:58.848Z,101180.53
2023-03-15T06:00:25.990Z,101184.78
2023-03-15T06:02:53.055Z,101187.41
2023-03-15T06:05:19.957Z,101194.31
2023-03-15T06:07:47.156Z,101188.13
2023-03-15T06:10:15.947Z,101194.03
2023-03-15T06:12:42.896Z,101201.06
2023-03-15T06:15:11.205Z,101199.28
2023-03-15T06:17:38.714Z,101209.06
2023-03-15T06:20:06.767Z,101206.44
2023-03-15T06:22:33.880Z,101211.69
2023-03-15T06:25:00.784Z,101220.22
2023-03-15T06:27:29.100Z,101224.47
2023-03-15T06:29:57.293Z,101223.53
2023-03-15T06:32:24.403Z,101236.63
2023-03-15T06:34:52.846Z,101238.41
2023-03-15T06:37:34.278Z,101230.69
2023-03-15T06:40:07.135Z,101246.09
2023-03-15T06:42:35.860Z,101244.88
2023-03-15T06:45:03.365Z,101247.19
2023-03-15T06:47:30.638Z,101255.75
2023-03-15T06:49:57.902Z,101249.94
2023-03-15T06:52:24.871Z,101260.94
2023-03-15T06:54:51.772Z,101260.81
2023-03-15T06:57:18.654Z,101265.13
2023-03-15T06:59:47.035Z,101273.72
2023-03-15T07:02:16.986Z,101278.50
2023-03-15T07:04:45.253Z,101289.78
2023-03-15T07:07:12.296Z,101288.81
2023-03-15T07:09:40.729Z,101290.69
2023-03-15T07:12:10.366Z,101307.06
2023-03-15T07:14:37.598Z,101308.19
2023-03-15T07:17:06.082Z,101316.44
2023-03-15T07:19:33.000Z,101319.22
2023-03-15T07:21:59.942Z,101324.22
2023-03-15T07:24:28.265Z,101325.84
2023-03-15T07:26:56.477Z,101325.69
2023-03-15T07:29:24.487Z,101331.59
2023-03-15T07:31:52.149Z,101343.81
2023-03-15T07:34:21.653Z,101338.16
2023-03-15T07:36:48.734Z,101340.47
2023-03-15T07:39:16.081Z,101346.44
2023-03-15T07:41:43.066Z,101348.72
2023-03-15T07:44:09.986Z,101353.03
2023-03-15T07:46:36.981Z,101360.78
2023-03-15T07:49:04.334Z,101360.41
2023-03-15T07:51:32.785Z,101355.19
2023-03-15T07:53:59.696Z,101357.31
2023-03-15T07:56:26.614Z,101355.16
2023-03-15T07:58:53.554Z,101361.13
2023-03-15T08:01:21.500Z,101359.44
2023-03-15T08:03:48.461Z,101355.63
2023-03-15T08:06:15.327Z,101357.44
2023-03-15T08:08:43.528Z,101365.25
2023-03-15T08:11:10.618Z,101368.41
2023-03-15T08:13:37.536Z,101363.97
2023-03-15T08:16:05.234Z,101376.03
2023-03-15T08:18:32.194Z,101367.97
2023-03-15T08:20:59.176Z,101372.97
2023-03-15T08:23:26.511Z,101373.09
2023-03-15T08:25:54.750Z,101376.09
2023-03-15T08:28:21.658Z,101376.84
2023-03-15T08:30:49.119Z,101384.91
2023-03-15T08:33:16.158Z,101390.31
2023-03-15T08:35:43.092Z,101385.50
2023-03-15T08:38:10.081Z,101389.91
2023-03-15T08:40:38.847Z,101396.06
2023-03-15T08:43:07.735Z,101401.41
2023-03-15T08:45:51.062Z,101406.81
2023-03-15T08:48:21.877Z,101411.03
2023-03-15T08:50:48.864Z,101420.19
2023-03-15T08:53:15.840Z,101413.44
2023-03-15T08:55:42.798Z,101422.72
2023-03-15T08:58:13.008Z,101414.31
2023-03-15T09:00:40.496Z,101426.94
2023-03-15T09:03:07.450Z,101423.44
2023-03-15T09:05:34.435Z,101422.78
2023-03-15T09:08:01.916Z,101426.50
2023-03-15T09:10:29.208Z,101430.56
2023-03-15T09:12:56.234Z,101438.03
2023-03-15T09:15:24.605Z,101444.00
2023-03-15T09:17:52.463Z,101448.84
2023-03-15T09:20:22.758Z,101450.22
2023-03-15T09:22:52.738Z,101449.75
2023-03-15T09:25:20.773Z,101458.63
2023-03-15T09:27:48.229Z,101452.81
2023-03-15T09:30:17.052Z,101450.13
2023-03-15T09:32:46.178Z,101462.91
2023-03-15T09:35:15.950Z,101463.09
2023-03-15T09:37:43.005Z,101462.31
2023-03-15T09:40:19.487Z,101458.44
2023-03-15T09:43:01.336Z,101460.75
2023-03-15T09:45:50.289Z,101463.97
2023-03-15T09:48:27.549Z,101469.69
2023-03-15T09:51:01.195Z,101472.06
2023-03-15T09:53:33.901Z,101477.50
2023-03-15T09:56:00.957Z,101462.31
2023-03-15T09:58:32.768Z,101484.47
2023-03-15T10:01:05.119Z,101479.78
2023-03-15T10:03:45.742Z,101482.09
2023-03-15T10:06:23.040Z,101486.44
2023-03-15T10:08:56.551Z,101488.91
2023-03-15T10:11:39.884Z,101484.91
2023-03-15T10:14:28.056Z,101483.81
2023-03-15T10:16:58.694Z,101490.81
2023-03-15T10:19:39.630Z,101508.53
2023-03-15T10:22:25.273Z,101521.91
2023-03-15T10:24:59.250Z,101552.34
2023-03-15T10:27:37.180Z,101566.03
2023-03-15T10:30:17.530Z,101576.09
2023-03-15T10:32:52.059Z,101579.50
2023-03-15T10:35:21.564Z,101587.50
2023-03-15T10:37:49.064Z,101602.91
2023-03-15T10:40:40.393Z,101612.03
2023-03-15T10:43:19.285Z,101611.16
2023-03-15T10:46:01.996Z,101621.84
2023-03-15T10:48:32.010Z,101620.53
2023-03-15T10:51:06.416Z,101622.50
2023-03-15T10:53:34.024Z,101618.44
2023-03-15T10:56:05.064Z,101612.25
2023-03-15T10:58:42.223Z,101600.03
2023-03-15T11:01:25.413Z,101596.75
2023-03-15T11:04:16.176Z,101600.69
2023-03-15T11:06:49.138Z,101600.66
2023-03-15T11:09:21.997Z,101592.03
2023-03-15T11:12:03.633Z,101596.47
2023-03-15T11:14:37.874Z,101594.91
2023-03-15T11:17:07.472Z,101609.09
2023-03-15T11:19:42.076Z,101617.38
2023-03-15T11:22:13.868Z,101637.84
2023-03-15T11:24:40.967Z,101640.81
2023-03-15T11:27:14.299Z,101656.69
2023-03-15T11:29:47.726Z,101678.94
2023-03-15T11:32:19.806Z,101684.75
2023-03-15T11:34:58.066Z,101695.75
2023-03-15T11:37:34.871Z,101698.28
2023-03-15T11:40:14.032Z,101704.34
2023-03-15T11:42:59.702Z,101707.06
2023-03-15T11:45:39.528Z,101699.91
2023-03-15T11:48:16.370Z,101703.34
2023-03-15T11:50:44.090Z,101716.34
2023-03-15T11:53:17.037Z,101714.66
2023-03-15T11:55:49.857Z,101713.41
2023-03-15T11:58:32.907Z,101710.44
2023-03-15T12:01:03.764Z,101717.94
2023-03-15T12:03:38.573Z,101724.94
2023-03-15T12:06:37.859Z,101722.88
2023-03-15T12:09:45.737Z,101715.22
2023-03-15T12:12:36.506Z,101713.31
2023-03-15T12:15:15.874Z,101704.63
2023-03-15T12:17:49.048Z,101684.00
2023-03-15T12:20:27.705Z,101660.69
2023-03-15T12:23:18.104Z,101655.38
2023-03-15T12:25:55.512Z,101658.38
2023-03-15T12:28:30.292Z,101663.25
2023-03-15T12:31:01.744Z,101665.13
2023-03-15T12:33:32.457Z,101665.66
2023-03-15T12:36:03.508Z,101669.06
2023-03-15T12:38:38.151Z,101662.16
2023-03-15T12:41:30.943Z,101672.03
2023-03-15T12:44:36.410Z,101672.81
2023-03-15T12:47:05.704Z,101667.84
2023-03-15T12:49:41.025Z,101673.91
2023-03-15T12:52:35.848Z,101673.97
2023-03-15T12:55:15.272Z,101684.53
2023-03-15T12:57:50.192Z,101679.97
2023-03-15T13:00:23.336Z,101681.22
2023-03-15T13:03:01.529Z,101670.34
2023-03-15T13:05:36.141Z,101674.47
2023-03-15T13:08:17.490Z,101668.28
2023-03-15T13:11:05.921Z,101654.91
2023-03-15T13:14:05.568Z,101658.56
2023-03-15T13:16:44.504Z,101656.09
2023-03-15T13:19:22.816Z,101651.34
2023-03-15T13:22:12.190Z,101662.81
2023-03-15T13:24:57.070Z,101659.81
2023-03-15T13:27:46.767Z,101661.34
2023-03-15T13:30:37.735Z,101654.72
2023-03-15T13:33:23.627Z,101659.91
2023-03-15T13:35:58.576Z,101660.03
2023-03-15T13:38:33.302Z,101666.59
2023-03-15T13:41:04.189Z,101657.69
2023-03-15T13:43:34.793Z,101666.75
2023-03-15T13:46:02.160Z,101667.69
2023-03-15T13:48:33.425Z,101667.34
2023-03-15T13:51:07.763Z,101659.72
2023-03-15T13:53:49.980Z,101669.09
2023-03-15T13:56:21.500Z,101665.69
2023-03-15T13:58:50.190Z,101655.59
2023-03-15T14:01:18.366Z,101666.44
2023-03-15T14:03:56.510Z,101662.38
2023-03-15T14:06:26.815Z,101663.38
2023-03-15T14:09:00.578Z,101670.50
2023-03-15T14:11:37.093Z,101668.22
2023-03-15T14:14:23.220Z,101665.38
2023-03-15T14:17:04.189Z,101664.75
2023-03-15T14:19:36.631Z,101674.97
2023-03-15T14:22:15.384Z,101674.25
2023-03-15T14:24:46.599Z,101672.88
2023-03-15T14:27:19.002Z,101668.78
2023-03-15T14:29:49.323Z,101670.75
2023-03-15T14:32:28.626Z,101674.22
2023-03-15T14:35:03.961Z,101678.16
2023-03-15T14:37:37.781Z,101679.56
2023-03-15T14:40:16.016Z,101672.88
2023-03-15T14:42:43.256Z,101677.41
2023-03-15T14:45:11.110Z,101677.03
2023-03-15T14:47:55.604Z,101674.69
2023-03-15T14:50:29.194Z,101678.00
2023-03-15T14:52:58.867Z,101676.81
2023-03-15T14:55:30.923Z,101665.78
2023-03-15T14:57:58.005Z,101669.66
2023-03-15T15:00:27.075Z,101675.41
2023-03-15T15:02:57.489Z,101673.72
2023-03-15T15:05:29.129Z,101675.38
2023-03-15T15:08:03.981Z,101677.03
2023-03-15T15:10:32.074Z,101670.53
2023-03-15T15:13:06.034Z,101675.50
2023-03-15T15:15:47.445Z,101679.16
2023-03-15T15:18:19.910Z,101680.53
2023-03-15T15:20:51.291Z,101687.91
2023-03-15T15:23:21.927Z,101688.06
2023-03-15T15:25:53.280Z,101685.59
2023-03-15T15:28:33.384Z,101689.88
2023-03-15T15:31:01.994Z,101696.88
2023-03-15T15:33:28.965Z,101691.56
2023-03-15T15:35:58.273Z,101689.59
2023-03-15T15:38:33.089Z,101702.56
2023-03-15T15:41:00.194Z,101699.94
2023-03-15T15:43:27.340Z,101705.44
2023-03-15T15:45:54.544Z,101700.19
2023-03-15T15:48:22.151Z,101691.00
2023-03-15T15:50:49.206Z,101690.94
2023-03-15T15:53:18.446Z,101694.84
2023-03-15T15:55:46.345Z,101702.22
2023-03-15T15:58:15.227Z,101699.94
2023-03-15T16:00:42.116Z,101694.22
2023-03-15T16:03:16.264Z,101697.91
2023-03-15T16:05:43.741Z,101717.75
2023-03-15T16:08:24.718Z,101700.69
2023-03-15T16:10:52.178Z,101702.88
2023-03-15T16:13:19.576Z,101705.03
2023-03-15T16:15:46.556Z,101709.69
2023-03-15T16:18:13.816Z,101717.63
2023-03-15T16:20:41.605Z,101712.28
2023-03-15T16:23:19.470Z,101715.50
2023-03-15T16:25:53.822Z,101713.94
2023-03-15T16:28:21.115Z,101712.69
2023-03-15T16:30:48.556Z,101723.19
2023-03-15T16:33:21.428Z,101719.13
2023-03-15T16:35:50.046Z,101719.19
2023-03-15T16:38:24.261Z,101721.19
2023-03-15T16:40:53.236Z,101731.84
2023-03-15T16:43:20.762Z,101728.56
2023-03-15T16:45:48.564Z,101731.88
2023-03-15T16:48:15.525Z,101731.44
2023-03-15T16:50:44.186Z,101735.56
2023-03-15T16:53:13.426Z,101733.63
2023-03-15T16:55:41.131Z,101735.97
2023-03-15T16:58:19.859Z,101737.31
2023-03-15T17:00:48.141Z,101744.94
2023-03-15T17:03:16.982Z,101742.66
2023-03-15T17:05:47.343Z,101742.00
2023-03-15T17:08:19.681Z,101748.78
2023-03-15T17:10:47.629Z,101744.00
2023-03-15T17:13:23.243Z,101747.66
2023-03-15T17:15:50.245Z,101753.94
2023-03-15T17:18:21.593Z,101751.44
2023-03-15T17:20:50.227Z,101759.56
2023-03-15T17:23:20.777Z,101760.91
2023-03-15T17:25:49.270Z,101766.84
2023-03-15T17:28:17.760Z,101765.16
2023-03-15T17:30:44.852Z,101762.19
2023-03-15T17:33:12.297Z,101771.44
2023-03-15T17:35:44.117Z,101774.41
2023-03-15T17:38:18.641Z,101764.31
2023-03-15T17:40:46.318Z,101767.09
2023-03-15T17:43:15.878Z,101772.88
2023-03-15T17:45:44.549Z,101770.06
2023-03-15T17:48:12.179Z,101769.72
2023-03-15T17:50:43.873Z,101775.19
2023-03-15T17:53:16.532Z,101773.03
2023-03-15T17:55:44.081Z,101781.28
2023-03-15T17:58:17.444Z,101781.91
2023-03-15T18:00:48.339Z,101777.13
2023-03-15T18:03:17.442Z,101782.25
2023-03-15T18:05:45.545Z,101782.25
2023-03-15T18:08:18.220Z,101778.94
2023-03-15T18:10:47.809Z,101785.69
2023-03-15T18:13:17.951Z,101782.88
2023-03-15T18:15:46.395Z,101785.16
2023-03-15T18:18:13.754Z,101784.16
2023-03-15T18:20:41.059Z,101790.03
2023-03-15T18:23:12.577Z,101785.09
2023-03-15T18:25:40.781Z,101792.03
2023-03-15T18:28:07.749Z,101795.31
2023-03-15T18:30:34.810Z,101792.19
2023-03-15T18:33:05.644Z,101799.09
2023-03-15T18:35:36.381Z,101793.75
2023-03-15T18:38:03.973Z,101800.47
2023-03-15T18:40:33.604Z,101802.78
2023-03-15T18:43:01.331Z,101806.50
2023-03-15T18:45:31.768Z,101804.91
2023-03-15T18:48:02.129Z,101823.50
2023-03-15T18:50:30.827Z,101811.69
2023-03-15T18:52:58.196Z,101811.25
2023-03-15T18:55:26.262Z,101818.13
2023-03-15T18:57:56.401Z,101823.97
2023-03-15T19:00:27.188Z,101823.78
2023-03-15T19:02:57.040Z,101818.94
2023-03-15T19:05:26.048Z,101827.16
2023-03-15T19:07:54.488Z,101823.84
2023-03-15T19:10:25.446Z,101822.50
2023-03-15T19:12:53.888Z,101833.31
2023-03-15T19:15:22.891Z,101830.25
2023-03-15T19:17:54.455Z,101827.16
2023-03-15T19:20:23.490Z,101838.75
2023-03-15T19:22:51.797Z,101839.41
2023-03-15T19:25:21.077Z,101838.97
2023-03-15T19:27:49.417Z,101846.72
2023-03-15T19:30:21.025Z,101840.34
2023-03-15T19:32:49.969Z,101841.31
2023-03-15T19:35:19.366Z,101852.00
2023-03-15T19:37:48.091Z,101848.53
2023-03-15T19:40:17.387Z,101853.63
2023-03-15T19:42:48.470Z,101852.69
2023-03-15T19:45:18.216Z,101851.72
2023-03-15T19:47:45.436Z,101852.38
2023-03-15T19:50:14.507Z,101859.28
2023-03-15T19:52:46.062Z,101863.88
2023-03-15T19:55:15.578Z,101859.91
2023-03-15T19:57:43.455Z,101866.75
2023-03-15T20:00:15.940Z,101862.22
2023-03-15T20:02:43.755Z,101862.97
2023-03-15T20:05:15.076Z,101865.22
2023-03-15T20:07:43.306Z,101864.53
2023-03-15T20:10:16.257Z,101865.00
2023-03-15T20:12:45.382Z,101871.00
2023-03-15T20:15:18.476Z,101874.22
2023-03-15T20:17:46.041Z,101879.50
2023-03-15T20:20:14.510Z,101878.13
2023-03-15T20:22:45.434Z,101876.47
2023-03-15T20:25:14.371Z,101875.63
2023-03-15T20:27:41.991Z,101872.84
2023-03-15T20:30:14.894Z,101878.94
2023-03-15T20:32:42.947Z,101880.63
2023-03-15T20:35:11.008Z,101872.44
2023-03-15T20:37:40.804Z,101876.72
2023-03-15T20:40:11.072Z,101882.56
2023-03-15T20:42:38.509Z,101879.00
2023-03-15T20:45:07.840Z,101886.81
2023-03-15T20:47:37.829Z,101894.16
2023-03-15T20:50:05.474Z,101889.56
2023-03-15T20:52:34.192Z,101892.09
2023-03-15T20:55:03.532Z,101892.66
2023-03-15T20:57:31.153Z,101894.06
2023-03-15T20:59:58.045Z,101887.84
2023-03-15T21:02:25.053Z,101886.78
2023-03-15T21:04:53.303Z,101884.41
2023-03-15T21:07:20.859Z,101886.38
2023-03-15T21:09:48.315Z,101891.63
2023-03-15T21:12:15.682Z,101895.09
2023-03-15T21:14:43.173Z,101890.81
2023-03-15T21:17:10.343Z,101886.66
2023-03-15T21:19:37.787Z,101890.53
2023-03-15T21:22:06.207Z,101888.59
2023-03-15T21:24:40.596Z,101892.66
2023-03-15T21:27:11.354Z,101886.56
2023-03-15T21:29:39.953Z,101875.13
2023-03-15T21:32:08.106Z,101884.66
2023-03-15T21:34:35.787Z,101887.72
2023-03-15T21:37:02.764Z,101886.47
2023-03-15T21:39:31.014Z,101877.47
2023-03-15T21:41:57.907Z,101882.31
2023-03-15T21:44:25.155Z,101879.31
2023-03-15T21:46:52.943Z,101886.75
2023-03-15T21:49:19.869Z,101886.06
2023-03-15T21:51:46.982Z,101892.84
2023-03-15T21:54:14.269Z,101893.94
2023-03-15T21:56:42.488Z,101893.09
2023-03-15T21:59:10.346Z,101903.44
2023-03-15T22:01:37.562Z,101904.69
2023-03-15T22:04:04.722Z,101897.06
2023-03-15T22:06:32.243Z,101903.31
2023-03-15T22:08:59.176Z,101911.44
2023-03-15T22:11:26.107Z,101905.75
2023-03-15T22:13:54.351Z,101908.66
2023-03-15T22:16:21.377Z,101911.81
2023-03-15T22:18:48.375Z,101907.66
2023-03-15T22:21:15.254Z,101906.13
2023-03-15T22:23:42.167Z,101906.28
2023-03-15T22:26:09.137Z,101901.84
2023-03-15T22:28:36.222Z,101909.72
2023-03-15T22:31:04.621Z,101910.00
2023-03-15T22:33:31.869Z,101907.06
2023-03-15T22:35:59.415Z,101898.19
2023-03-15T22:38:26.584Z,101898.75
2023-03-15T22:41:02.642Z,101903.41
2023-03-15T22:43:29.873Z,101892.34
2023-03-15T22:45:56.817Z,101886.22
2023-03-15T22:48:25.962Z,101897.47
2023-03-15T22:50:58.452Z,101889.16
2023-03-15T22:53:25.598Z,101896.34
2023-03-15T22:55:53.031Z,101895.75
2023-03-15T22:58:20.355Z,101903.75
2023-03-15T23:00:48.555Z,101899.47
2023-03-15T23:03:16.167Z,101904.00
2023-03-15T23:05:44.610Z,101897.09
2023-03-15T23:08:11.620Z,101894.34
2023-03-15T23:10:38.665Z,101902.09
2023-03-15T23:13:06.059Z,101905.09
2023-03-15T23:15:33.343Z,101912.50
2023-03-15T23:18:01.770Z,101910.72
2023-03-15T23:20:29.358Z,101909.19
2023-03-15T23:22:58.451Z,101904.50
2023-03-15T23:25:29.416Z,101903.81
2023-03-15T23:27:57.160Z,101906.44
2023-03-15T23:30:24.128Z,101908.94
2023-03-15T23:32:57.397Z,101914.03
2023-03-15T23:35:25.072Z,101904.50
2023-03-15T23:37:52.924Z,101917.50
2023-03-15T23:40:21.894Z,101916.09
2023-03-15T23:42:58.556Z,101910.03
2023-03-15T23:45:27.582Z,101917.19
2023-03-15T23:47:54.899Z,101913.34
2023-03-15T23:50:25.714Z,101918.34
2023-03-15T23:52:54.565Z,101918.34
2023-03-15T23:55:23.830Z,101909.75
2023-03-15T23:57:53.848Z,101917.63
